createdAt,value
2018-05-14T00:01:40.933Z,84.39
2018-05-14T00:04:10.204Z,84.51
2018-05-14T00:06:40.218Z,83.89
2018-05-14T00:09:11.131Z,84.26
2018-05-14T00:11:42.028Z,84.54
2018-05-14T00:14:12.143Z,84.16
2018-05-14T00:16:42.888Z,84.44
2018-05-14T00:19:13.756Z,83.76
2018-05-14T00:21:44.451Z,84.20
2018-05-14T00:24:13.861Z,85.07
2018-05-14T00:26:44.549Z,85.16
2018-05-14T00:29:13.568Z,85.09
2018-05-14T00:31:44.506Z,85.47
2018-05-14T00:34:14.822Z,84.92
2018-05-14T00:36:44.236Z,85.17
2018-05-14T00:39:14.999Z,85.62
2018-05-14T00:41:44.493Z,85.33
2018-05-14T00:44:16.353Z,84.87
2018-05-14T00:46:46.656Z,84.97
2018-05-14T00:49:15.876Z,85.06
2018-05-14T00:51:47.159Z,85.39
2018-05-14T00:54:16.984Z,84.83
2018-05-14T00:56:48.471Z,84.42
2018-05-14T00:59:18.312Z,84.40
2018-05-14T01:01:49.953Z,84.97
2018-05-14T01:04:20.873Z,84.50
2018-05-14T01:06:52.860Z,85.00
2018-05-14T01:09:23.798Z,85.39
2018-05-14T01:11:53.275Z,85.12
2018-05-14T01:14:24.074Z,85.07
2018-05-14T01:16:53.339Z,84.93
2018-05-14T01:19:24.709Z,85.76
2018-05-14T01:21:53.868Z,85.34
2018-05-14T01:24:24.302Z,84.49
2018-05-14T01:26:53.658Z,85.13
2018-05-14T01:29:25.008Z,85.19
2018-05-14T01:31:55.580Z,85.57
2018-05-14T01:34:27.466Z,86.09
2018-05-14T01:36:56.747Z,86.00
2018-05-14T01:39:27.744Z,86.81
2018-05-14T01:41:57.155Z,86.30
2018-05-14T01:44:26.637Z,86.27
2018-05-14T01:46:55.816Z,86.41
2018-05-14T01:49:26.703Z,86.66
2018-05-14T01:51:55.736Z,86.76
2018-05-14T01:54:26.909Z,87.21
2018-05-14T01:56:57.549Z,86.60
2018-05-14T01:59:27.489Z,87.71
2018-05-14T02:01:57.336Z,87.67
2018-05-14T02:04:26.624Z,87.82
2018-05-14T02:06:55.788Z,87.13
2018-05-14T02:09:26.567Z,86.77
2018-05-14T02:11:56.505Z,86.94
2018-05-14T02:14:27.187Z,87.14
2018-05-14T02:16:56.831Z,87.38
2018-05-14T02:19:27.500Z,89.06
2018-05-14T02:21:56.639Z,88.03
2018-05-14T02:24:27.329Z,87.70
2018-05-14T02:26:56.471Z,88.53
2018-05-14T02:29:25.953Z,88.32
2018-05-14T02:31:56.514Z,88.27
2018-05-14T02:34:26.389Z,88.04
2018-05-14T02:36:55.339Z,87.63
2018-05-14T02:39:26.117Z,88.64
2018-05-14T02:41:56.945Z,88.65
2018-05-14T02:44:28.178Z,88.14
2018-05-14T02:46:58.816Z,88.88
2018-05-14T02:49:29.426Z,88.54
2018-05-14T02:51:58.950Z,89.67
2018-05-14T02:54:28.553Z,89.67
2018-05-14T02:56:59.973Z,89.86
2018-05-14T02:59:30.671Z,89.62
2018-05-14T03:02:01.433Z,89.56
2018-05-14T03:04:31.140Z,89.53
2018-05-14T03:07:02.331Z,89.47
2018-05-14T03:09:33.206Z,89.36
2018-05-14T03:12:03.505Z,89.03
2018-05-14T03:14:34.378Z,88.80
2018-05-14T03:17:05.760Z,89.16
2018-05-14T03:19:35.060Z,88.81
2018-05-14T03:22:05.691Z,89.11
2018-05-14T03:24:36.599Z,89.38
2018-05-14T03:27:06.536Z,89.74
2018-05-14T03:29:36.405Z,90.60
2018-05-14T03:32:05.844Z,90.80
2018-05-14T03:34:36.521Z,90.28
2018-05-14T03:37:05.381Z,90.25
2018-05-14T03:39:34.612Z,90.84
2018-05-14T03:42:03.554Z,90.70
2018-05-14T03:44:32.959Z,90.37
2018-05-14T03:47:04.437Z,89.79
2018-05-14T03:49:34.197Z,90.07
2018-05-14T03:52:04.148Z,90.17
2018-05-14T03:54:35.580Z,90.16
2018-05-14T03:57:06.892Z,90.32
2018-05-14T04:00:12.104Z,89.53
2018-05-14T04:03:27.293Z,89.42
2018-05-14T04:06:35.339Z,89.30
2018-05-14T04:09:05.400Z,89.71
2018-05-14T04:11:34.699Z,89.71
2018-05-14T04:14:03.672Z,89.65
2018-05-14T04:16:34.393Z,89.81
2018-05-14T04:19:04.936Z,89.54
2018-05-14T04:21:36.231Z,89.72
2018-05-14T04:24:05.375Z,89.59
2018-05-14T04:26:36.055Z,88.80
2018-05-14T04:29:06.410Z,89.50
2018-05-14T04:31:35.748Z,88.78
2018-05-14T04:34:06.133Z,89.42
2018-05-14T04:36:35.487Z,88.77
2018-05-14T04:39:04.352Z,89.00
2018-05-14T04:41:33.379Z,89.12
2018-05-14T04:44:03.252Z,89.57
2018-05-14T04:46:33.873Z,90.44
2018-05-14T04:49:04.510Z,91.33
2018-05-14T04:51:35.846Z,91.26
2018-05-14T04:54:06.790Z,91.31
2018-05-14T04:56:36.247Z,92.19
2018-05-14T04:59:06.928Z,91.83
2018-05-14T05:01:38.260Z,91.80
2018-05-14T05:04:07.874Z,91.57
2018-05-14T05:06:38.662Z,91.46
2018-05-14T05:09:09.593Z,91.67
2018-05-14T05:11:40.659Z,92.22
2018-05-14T05:14:10.488Z,92.06
2018-05-14T05:16:41.434Z,92.04
2018-05-14T05:19:12.311Z,92.21
2018-05-14T05:21:43.672Z,92.13
2018-05-14T05:24:13.535Z,91.59
2018-05-14T05:26:42.600Z,90.86
2018-05-14T05:29:12.427Z,91.21
2018-05-14T05:31:41.815Z,91.78
2018-05-14T05:34:12.517Z,91.98
2018-05-14T05:36:42.101Z,91.70
2018-05-14T05:39:12.014Z,91.35
2018-05-14T05:41:41.148Z,91.42
2018-05-14T05:44:10.513Z,91.31
2018-05-14T05:46:39.997Z,91.56
2018-05-14T05:49:09.890Z,92.76
2018-05-14T05:51:40.713Z,93.00
2018-05-14T05:54:09.781Z,93.06
2018-05-14T05:56:40.707Z,93.32
2018-05-14T05:59:10.040Z,93.24
2018-05-14T06:01:40.941Z,93.11
2018-05-14T06:04:10.946Z,92.86
2018-05-14T06:06:40.519Z,93.08
2018-05-14T06:09:09.973Z,93.31
2018-05-14T06:11:39.111Z,93.13
2018-05-14T06:14:09.874Z,93.04
2018-05-14T06:16:39.599Z,93.03
2018-05-14T06:19:09.550Z,92.64
2018-05-14T06:21:39.432Z,93.07
2018-05-14T06:24:10.042Z,93.13
2018-05-14T06:26:39.421Z,92.97
2018-05-14T06:29:09.129Z,92.33
2018-05-14T06:31:39.811Z,92.26
2018-05-14T06:34:10.726Z,92.35
2018-05-14T06:36:40.556Z,92.15
2018-05-14T06:39:11.811Z,91.87
2018-05-14T06:41:42.665Z,91.35
2018-05-14T06:44:13.636Z,91.61
2018-05-14T06:46:44.565Z,91.17
2018-05-14T06:49:13.883Z,90.78
2018-05-14T06:51:43.134Z,90.07
2018-05-14T06:54:13.085Z,90.10
2018-05-14T06:56:43.718Z,90.31
2018-05-14T06:59:14.568Z,90.18
2018-05-14T07:01:43.651Z,90.03
2018-05-14T07:04:13.987Z,89.71
2018-05-14T07:06:44.834Z,89.81
2018-05-14T07:09:15.737Z,89.95
2018-05-14T07:11:44.952Z,89.57
2018-05-14T07:14:24.219Z,89.63
2018-05-14T07:16:56.405Z,89.04
2018-05-14T07:19:27.412Z,88.90
2018-05-14T07:21:59.142Z,88.92
2018-05-14T07:24:30.226Z,88.87
2018-05-14T07:27:00.284Z,88.75
2018-05-14T07:29:31.105Z,88.68
2018-05-14T07:32:03.273Z,88.69
2018-05-14T07:34:32.344Z,88.15
2018-05-14T07:37:01.874Z,87.97
2018-05-14T07:39:32.554Z,87.57
2018-05-14T07:42:02.455Z,87.53
2018-05-14T07:44:33.334Z,86.80
2018-05-14T07:47:02.693Z,86.49
2018-05-14T07:49:33.610Z,84.87
2018-05-14T07:52:04.358Z,83.60
2018-05-14T07:54:33.850Z,83.97
2018-05-14T07:57:04.503Z,83.16
2018-05-14T07:59:35.625Z,83.64
2018-05-14T08:02:06.421Z,82.94
2018-05-14T08:04:35.656Z,81.82
2018-05-14T08:07:06.552Z,81.84
2018-05-14T08:09:35.969Z,80.72
2018-05-14T08:12:07.524Z,79.77
2018-05-14T08:14:36.604Z,80.28
2018-05-14T08:17:07.467Z,79.77
2018-05-14T08:19:36.911Z,78.57
2018-05-14T08:22:07.827Z,75.69
2018-05-14T08:24:39.132Z,74.31
2018-05-14T08:27:08.543Z,73.11
2018-05-14T08:29:39.472Z,72.43
2018-05-14T08:32:08.343Z,72.32
2018-05-14T08:34:39.250Z,73.40
2018-05-14T08:37:09.010Z,72.37
2018-05-14T08:39:38.531Z,71.78
2018-05-14T08:42:07.640Z,71.53
2018-05-14T08:44:38.213Z,70.33
2018-05-14T08:47:09.159Z,70.37
2018-05-14T08:49:39.134Z,68.02
2018-05-14T08:52:08.441Z,66.00
2018-05-14T08:54:39.323Z,66.79
2018-05-14T08:57:09.978Z,68.11
2018-05-14T08:59:39.957Z,65.55
2018-05-14T09:02:09.862Z,65.03
2018-05-14T09:04:39.467Z,61.16
2018-05-14T09:07:09.542Z,58.69
2018-05-14T09:09:39.886Z,59.70
2018-05-14T09:12:10.518Z,57.24
2018-05-14T09:14:41.632Z,54.06
2018-05-14T09:17:11.008Z,54.28
2018-05-14T09:19:40.189Z,56.55
2018-05-14T09:22:10.827Z,56.62
2018-05-14T09:24:42.083Z,54.52
2018-05-14T09:27:13.408Z,57.96
2018-05-14T09:29:44.198Z,56.86
2018-05-14T09:32:15.061Z,56.15
2018-05-14T09:34:45.827Z,56.08
2018-05-14T09:37:14.878Z,54.51
2018-05-14T09:39:46.278Z,54.91
2018-05-14T09:42:17.745Z,52.91
2018-05-14T09:44:47.800Z,54.17
2018-05-14T09:47:18.563Z,52.46
2018-05-14T09:49:49.889Z,52.07
2018-05-14T09:52:21.332Z,53.01
2018-05-14T09:54:52.348Z,52.85
2018-05-14T09:57:21.858Z,56.95
2018-05-14T09:59:51.307Z,51.54
2018-05-14T10:02:22.238Z,50.81
2018-05-14T10:04:53.204Z,51.93
2018-05-14T10:07:23.937Z,52.76
2018-05-14T10:09:55.140Z,51.41
2018-05-14T10:12:26.132Z,49.14
2018-05-14T10:14:55.872Z,50.74
2018-05-14T10:17:27.000Z,49.86
2018-05-14T10:19:57.764Z,48.10
2018-05-14T10:22:28.776Z,48.99
2018-05-14T10:24:58.770Z,52.00
2018-05-14T10:27:29.192Z,49.95
2018-05-14T10:30:00.373Z,49.64
2018-05-14T10:32:30.452Z,47.09
2018-05-14T10:35:01.466Z,47.15
2018-05-14T10:37:33.355Z,46.83
2018-05-14T10:40:04.304Z,47.40
2018-05-14T10:42:35.258Z,47.36
2018-05-14T10:45:04.851Z,47.77
2018-05-14T10:47:36.189Z,49.04
2018-05-14T10:50:05.568Z,47.53
2018-05-14T10:52:35.515Z,44.68
2018-05-14T10:55:06.728Z,47.80
2018-05-14T10:57:36.080Z,47.93
2018-05-14T11:00:06.920Z,45.99
2018-05-14T11:02:38.437Z,45.26
2018-05-14T11:05:09.373Z,46.22
2018-05-14T11:07:40.413Z,46.96
2018-05-14T11:10:11.248Z,50.12
2018-05-14T11:12:42.227Z,48.76
2018-05-14T11:15:13.174Z,46.04
2018-05-14T11:17:42.513Z,46.30
2018-05-14T11:20:12.154Z,47.53
2018-05-14T11:22:45.756Z,46.85
2018-05-14T11:25:15.689Z,47.81
2018-05-14T11:27:45.637Z,45.15
2018-05-14T11:30:16.861Z,43.77
2018-05-14T11:32:46.616Z,47.72
2018-05-14T11:35:17.471Z,45.72
2018-05-14T11:37:47.268Z,45.73
2018-05-14T11:40:16.646Z,45.77
2018-05-14T11:42:47.304Z,47.32
2018-05-14T11:45:18.211Z,46.44
2018-05-14T11:47:49.218Z,45.19
2018-05-14T11:50:18.322Z,46.66
2018-05-14T11:52:49.212Z,43.65
2018-05-14T11:55:18.742Z,43.63
2018-05-14T11:57:48.070Z,43.52
2018-05-14T12:00:17.446Z,41.98
2018-05-14T12:02:47.128Z,41.51
2018-05-14T12:05:16.204Z,42.84
2018-05-14T12:07:46.493Z,42.09
2018-05-14T12:10:16.098Z,42.72
2018-05-14T12:12:45.263Z,42.24
2018-05-14T12:15:15.916Z,39.64
2018-05-14T12:17:46.982Z,39.09
2018-05-14T12:20:19.814Z,39.20
2018-05-14T12:22:50.656Z,40.81
2018-05-14T12:25:21.335Z,40.39
2018-05-14T12:27:51.206Z,41.53
2018-05-14T12:30:22.273Z,38.84
2018-05-14T12:32:51.888Z,40.39
2018-05-14T12:35:21.253Z,38.73
2018-05-14T12:37:52.392Z,38.04
2018-05-14T12:40:22.855Z,39.72
2018-05-14T12:42:52.174Z,37.36
2018-05-14T12:45:23.186Z,38.36
2018-05-14T12:47:54.234Z,37.75
2018-05-14T12:50:23.357Z,37.88
2018-05-14T12:52:54.744Z,35.60
2018-05-14T12:55:23.951Z,36.43
2018-05-14T12:57:53.066Z,35.28
2018-05-14T13:00:23.923Z,35.27
2018-05-14T13:02:53.818Z,34.12
2018-05-14T13:05:25.972Z,35.84
2018-05-14T13:07:55.881Z,33.75
2018-05-14T13:10:27.320Z,36.90
2018-05-14T13:12:57.981Z,33.15
2018-05-14T13:15:29.613Z,33.66
2018-05-14T13:18:01.388Z,33.94
2018-05-14T13:20:32.810Z,32.79
2018-05-14T13:23:02.743Z,32.32
2018-05-14T13:25:34.174Z,33.74
2018-05-14T13:28:05.631Z,34.67
2018-05-14T13:30:35.541Z,33.93
2018-05-14T13:33:06.991Z,32.50
2018-05-14T13:35:37.441Z,30.18
2018-05-14T13:38:08.874Z,31.50
2018-05-14T13:40:38.806Z,29.68
2018-05-14T13:43:09.333Z,31.61
2018-05-14T13:45:41.292Z,32.66
2018-05-14T13:48:11.086Z,33.01
2018-05-14T13:50:40.702Z,33.13
2018-05-14T13:53:12.409Z,31.52
2018-05-14T13:55:43.509Z,31.51
2018-05-14T13:58:14.932Z,31.63
2018-05-14T14:00:44.577Z,31.61
2018-05-14T14:03:14.793Z,31.43
2018-05-14T14:05:46.178Z,33.26
2018-05-14T14:08:17.926Z,32.36
2018-05-14T14:10:47.715Z,32.62
2018-05-14T14:13:19.150Z,31.40
2018-05-14T14:15:48.969Z,31.90
2018-05-14T14:18:18.800Z,33.76
2018-05-14T14:20:48.578Z,33.36
2018-05-14T14:23:18.969Z,32.93
2018-05-14T14:25:47.857Z,32.49
2018-05-14T14:28:17.120Z,35.16
2018-05-14T14:30:46.909Z,32.11
2018-05-14T14:33:18.689Z,31.32
2018-05-14T14:35:50.187Z,32.93
2018-05-14T14:38:20.034Z,31.85
2018-05-14T14:40:49.565Z,32.91
2018-05-14T14:43:20.190Z,32.13
2018-05-14T14:45:49.239Z,32.46
2018-05-14T14:48:18.990Z,32.52
2018-05-14T14:50:50.251Z,32.63
2018-05-14T14:53:21.530Z,32.59
2018-05-14T14:55:51.280Z,30.77
2018-05-14T14:58:22.937Z,32.26
2018-05-14T15:00:52.650Z,32.05
2018-05-14T15:03:22.481Z,31.10
2018-05-14T15:05:53.824Z,32.59
2018-05-14T15:08:23.715Z,32.25
2018-05-14T15:10:54.164Z,33.46
2018-05-14T15:13:23.677Z,32.12
2018-05-14T15:15:52.776Z,31.96
2018-05-14T15:18:24.244Z,29.82
2018-05-14T15:20:55.328Z,30.55
2018-05-14T15:23:25.316Z,31.02
2018-05-14T15:25:56.673Z,32.42
2018-05-14T15:28:26.527Z,31.99
2018-05-14T15:30:58.059Z,31.52
2018-05-14T15:33:29.529Z,31.27
2018-05-14T15:35:58.585Z,32.10
2018-05-14T15:38:30.728Z,31.57
2018-05-14T15:41:02.575Z,31.34
2018-05-14T15:43:32.463Z,31.31
2018-05-14T15:46:04.057Z,30.04
2018-05-14T15:48:35.410Z,30.79
2018-05-14T15:51:06.733Z,31.57
2018-05-14T15:53:36.724Z,31.08
2018-05-14T15:56:07.464Z,31.33
2018-05-14T15:58:38.627Z,30.52
2018-05-14T16:01:09.945Z,30.50
2018-05-14T16:03:39.779Z,31.35
2018-05-14T16:06:09.692Z,30.12
2018-05-14T16:08:41.721Z,30.41
2018-05-14T16:11:12.991Z,30.48
2018-05-14T16:13:44.338Z,30.81
2018-05-14T16:16:14.245Z,30.40
2018-05-14T16:18:44.086Z,32.55
2018-05-14T16:21:15.457Z,29.92
2018-05-14T16:23:46.856Z,30.22
2018-05-14T16:26:18.239Z,30.10
2018-05-14T16:28:48.041Z,30.71
2018-05-14T16:31:17.960Z,33.08
2018-05-14T16:33:49.220Z,29.47
2018-05-14T16:36:20.603Z,29.94
2018-05-14T16:38:52.201Z,29.89
2018-05-14T16:41:23.632Z,30.94
2018-05-14T16:43:54.898Z,31.76
2018-05-14T16:46:24.812Z,29.55
2018-05-14T16:48:56.243Z,30.28
2018-05-14T16:51:27.342Z,30.44
2018-05-14T16:53:57.222Z,30.39
2018-05-14T16:56:27.119Z,29.10
2018-05-14T16:58:56.980Z,30.60
2018-05-14T17:01:28.501Z,31.33
2018-05-14T17:03:59.224Z,31.08
2018-05-14T17:06:29.022Z,30.34
2018-05-14T17:09:00.781Z,29.15
2018-05-14T17:11:31.103Z,30.47
2018-05-14T17:14:02.395Z,30.10
2018-05-14T17:16:33.762Z,30.61
2018-05-14T17:19:05.146Z,30.44
2018-05-14T17:21:37.044Z,30.71
2018-05-14T17:24:08.449Z,30.28
2018-05-14T17:26:39.255Z,30.43
2018-05-14T17:29:11.618Z,31.11
2018-05-14T17:31:42.967Z,30.26
2018-05-14T17:34:14.401Z,31.12
2018-05-14T17:36:45.889Z,31.16
2018-05-14T17:39:15.756Z,30.85
2018-05-14T17:41:45.643Z,30.79
2018-05-14T17:44:15.694Z,31.33
2018-05-14T17:46:46.298Z,32.09
2018-05-14T17:49:15.598Z,31.67
2018-05-14T17:51:46.891Z,32.58
2018-05-14T17:54:16.882Z,33.25
2018-05-14T17:56:48.251Z,33.27
2018-05-14T17:59:20.591Z,33.18
2018-05-14T18:01:50.501Z,33.69
2018-05-14T18:04:21.900Z,33.99
2018-05-14T18:06:51.738Z,34.46
2018-05-14T18:09:21.792Z,34.58
2018-05-14T18:11:53.217Z,34.37
2018-05-14T18:14:25.156Z,33.84
2018-05-14T18:16:54.713Z,34.91
2018-05-14T18:19:25.959Z,35.09
2018-05-14T18:22:15.055Z,35.38
2018-05-14T18:24:53.336Z,35.22
2018-05-14T18:27:34.716Z,35.98
2018-05-14T18:30:14.357Z,36.03
2018-05-14T18:32:55.545Z,36.49
2018-05-14T18:35:27.657Z,37.14
2018-05-14T18:37:59.129Z,37.70
2018-05-14T18:40:30.511Z,37.62
2018-05-14T18:43:00.517Z,37.41
2018-05-14T18:45:30.838Z,37.30
2018-05-14T18:48:00.643Z,37.78
2018-05-14T18:50:31.462Z,38.46
2018-05-14T18:53:01.388Z,39.26
2018-05-14T18:55:33.381Z,39.65
2018-05-14T18:58:04.808Z,40.11
2018-05-14T19:00:35.946Z,40.46
2018-05-14T19:03:05.557Z,40.32
2018-05-14T19:05:35.486Z,40.74
2018-05-14T19:08:07.656Z,41.30
2018-05-14T19:10:56.490Z,41.71
2018-05-14T19:13:27.751Z,41.66
2018-05-14T19:16:25.502Z,42.12
2018-05-14T19:18:56.662Z,42.48
2018-05-14T19:21:26.489Z,42.78
2018-05-14T19:23:57.663Z,43.10
2018-05-14T19:26:27.527Z,43.60
2018-05-14T19:29:14.546Z,44.45
2018-05-14T19:31:46.226Z,44.16
2018-05-14T19:34:34.965Z,44.60
2018-05-14T19:37:04.780Z,45.34
2018-05-14T19:39:53.511Z,45.65
2018-05-14T19:42:23.476Z,46.16
2018-05-14T19:44:54.904Z,46.54
2018-05-14T19:47:25.537Z,46.97
2018-05-14T19:49:57.002Z,47.61
2018-05-14T19:52:26.589Z,47.76
2018-05-14T19:54:55.756Z,48.06
2018-05-14T19:57:25.674Z,48.69
2018-05-14T19:59:57.026Z,49.20
2018-05-14T20:02:26.965Z,49.57
2018-05-14T20:04:57.468Z,49.43
2018-05-14T20:07:28.736Z,49.81
2018-05-14T20:09:59.175Z,50.27
2018-05-14T20:12:30.157Z,50.88
2018-05-14T20:15:01.568Z,51.26
2018-05-14T20:17:31.451Z,51.06
2018-05-14T20:20:02.806Z,51.48
2018-05-14T20:22:34.232Z,51.88
2018-05-14T20:25:04.247Z,52.50
2018-05-14T20:27:34.721Z,52.96
2018-05-14T20:30:04.319Z,52.57
2018-05-14T20:32:35.817Z,52.79
2018-05-14T20:35:05.688Z,53.43
2018-05-14T20:37:36.275Z,53.24
2018-05-14T20:40:07.732Z,53.61
2018-05-14T20:42:37.373Z,53.81
2018-05-14T20:45:09.160Z,54.08
2018-05-14T20:47:38.921Z,54.46
2018-05-14T20:50:08.326Z,54.51
2018-05-14T20:52:39.891Z,54.49
2018-05-14T20:55:09.815Z,54.12
2018-05-14T20:57:39.535Z,54.57
2018-05-14T21:00:11.064Z,54.58
2018-05-14T21:02:41.097Z,54.88
2018-05-14T21:05:11.016Z,55.45
2018-05-14T21:07:41.012Z,55.24
2018-05-14T21:10:12.947Z,55.19
2018-05-14T21:12:43.014Z,56.01
2018-05-14T21:15:14.555Z,55.82
2018-05-14T21:17:44.986Z,56.07
2018-05-14T21:20:14.343Z,56.23
2018-05-14T21:22:45.757Z,56.18
2018-05-14T21:25:16.472Z,56.40
2018-05-14T21:27:47.127Z,56.85
2018-05-14T21:30:18.541Z,56.48
2018-05-14T21:32:49.964Z,56.55
2018-05-14T21:35:21.448Z,56.61
2018-05-14T21:37:50.776Z,56.47
2018-05-14T21:40:21.260Z,56.73
2018-05-14T21:42:52.696Z,56.77
2018-05-14T21:45:22.621Z,56.43
2018-05-14T21:47:52.551Z,56.74
2018-05-14T21:50:24.037Z,57.53
2018-05-14T21:52:54.552Z,57.74
2018-05-14T21:55:25.885Z,57.55
2018-05-14T21:57:57.329Z,57.42
2018-05-14T22:00:27.286Z,57.08
2018-05-14T22:02:58.802Z,57.21
2018-05-14T22:05:29.240Z,57.78
2018-05-14T22:07:59.130Z,57.56
2018-05-14T22:10:29.045Z,57.73
2018-05-14T22:13:00.545Z,57.64
2018-05-14T22:15:30.429Z,57.74
2018-05-14T22:18:01.814Z,57.82
2018-05-14T22:20:31.724Z,58.09
2018-05-14T22:23:01.594Z,58.37
2018-05-14T22:25:32.729Z,58.71
2018-05-14T22:28:02.771Z,58.00
2018-05-14T22:30:33.219Z,58.54
2018-05-14T22:33:04.081Z,59.34
2018-05-14T22:35:33.162Z,58.64
2018-05-14T22:38:03.021Z,58.99
2018-05-14T22:40:34.547Z,59.09
2018-05-14T22:43:06.339Z,59.84
2018-05-14T22:45:36.975Z,59.98
2018-05-14T22:48:08.410Z,59.66
2018-05-14T22:50:40.685Z,59.59
2018-05-14T22:53:12.162Z,59.93
2018-05-14T22:55:43.644Z,59.94
2018-05-14T22:58:15.047Z,59.82
2018-05-14T23:00:45.065Z,58.87
2018-05-14T23:03:14.962Z,58.72
2018-05-14T23:05:46.597Z,59.05
2018-05-14T23:08:18.064Z,58.98
2018-05-14T23:10:47.977Z,59.36
2018-05-14T23:13:18.410Z,59.32
2018-05-14T23:15:48.356Z,59.71
2018-05-14T23:18:18.253Z,59.74
2018-05-14T23:20:48.574Z,59.94
2018-05-14T23:23:20.022Z,60.28
2018-05-14T23:25:50.680Z,60.50
2018-05-14T23:28:22.354Z,60.73
2018-05-14T23:30:51.444Z,60.77
2018-05-14T23:33:22.865Z,60.99
2018-05-14T23:35:54.273Z,60.93
2018-05-14T23:38:25.583Z,61.04
2018-05-14T23:40:55.672Z,61.79
2018-05-14T23:43:27.084Z,61.86
2018-05-14T23:45:58.418Z,61.77
2018-05-14T23:48:29.055Z,61.98
2018-05-14T23:50:59.922Z,62.11
2018-05-14T23:53:30.900Z,62.41
2018-05-14T23:56:02.896Z,62.52
2018-05-14T23:58:34.029Z,62.82
